sensor_id;sensor_type;location;lat;lon;timestamp;P1;durP1;ratioP1;P2;durP2;ratioP2
5869;SDS011;2961;47.702;9.410;2023-02-28T00:01:30;12.50;;;5.67;;
5869;SDS011;2961;47.702;9.410;2023-02-28T00:03:58;9.73;;;5.77;;
5869;SDS011;2961;47.702;9.410;2023-02-28T00:06:25;9.93;;;6.47;;
5869;SDS011;2961;47.702;9.410;2023-02-28T00:08:51;6.93;;;5.67;;
5869;SDS011;2961;47.702;9.410;2023-02-28T00:11:18;7.77;;;6.90;;
5869;SDS011;2961;47.702;9.410;2023-02-28T00:13:47;9.60;;;6.90;;
5869;SDS011;2961;47.702;9.410;2023-02-28T00:16:15;11.80;;;7.37;;
5869;SDS011;2961;47.702;9.410;2023-02-28T00:18:43;10.17;;;6.20;;
5869;SDS011;2961;47.702;9.410;2023-02-28T00:21:10;8.90;;;5.90;;
5869;SDS011;2961;47.702;9.410;2023-02-28T00:23:37;13.47;;;5.63;;
5869;SDS011;2961;47.702;9.410;2023-02-28T00:26:04;9.10;;;5.53;;
5869;SDS011;2961;47.702;9.410;2023-02-28T00:28:31;8.00;;;6.43;;
5869;SDS011;2961;47.702;9.410;2023-02-28T00:30:59;7.10;;;6.30;;
5869;SDS011;2961;47.702;9.410;2023-02-28T00:33:26;7.47;;;5.83;;
5869;SDS011;2961;47.702;9.410;2023-02-28T00:36:00;6.03;;;5.43;;
5869;SDS011;2961;47.702;9.410;2023-02-28T00:38:28;6.10;;;5.50;;
5869;SDS011;2961;47.702;9.410;2023-02-28T00:40:55;5.90;;;5.43;;
5869;SDS011;2961;47.702;9.410;2023-02-28T00:43:23;8.10;;;6.37;;
5869;SDS011;2961;47.702;9.410;2023-02-28T00:45:50;7.60;;;6.07;;
5869;SDS011;2961;47.702;9.410;2023-02-28T00:48:18;7.17;;;6.47;;
5869;SDS011;2961;47.702;9.410;2023-02-28T00:50:47;8.20;;;7.27;;
5869;SDS011;2961;47.702;9.410;2023-02-28T00:53:14;8.60;;;6.40;;
5869;SDS011;2961;47.702;9.410;2023-02-28T00:55:41;6.33;;;5.80;;
5869;SDS011;2961;47.702;9.410;2023-02-28T00:58:08;8.70;;;5.90;;
5869;SDS011;2961;47.702;9.410;2023-02-28T01:00:35;9.60;;;6.57;;
5869;SDS011;2961;47.702;9.410;2023-02-28T01:03:02;6.87;;;6.20;;
5869;SDS011;2961;47.702;9.410;2023-02-28T01:05:30;10.37;;;6.33;;
5869;SDS011;2961;47.702;9.410;2023-02-28T01:07:57;6.40;;;5.40;;
5869;SDS011;2961;47.702;9.410;2023-02-28T01:10:24;8.43;;;5.90;;
5869;SDS011;2961;47.702;9.410;2023-02-28T01:12:51;11.27;;;6.37;;
5869;SDS011;2961;47.702;9.410;2023-02-28T01:15:18;4.73;;;4.33;;
5869;SDS011;2961;47.702;9.410;2023-02-28T01:17:45;12.17;;;5.13;;
5869;SDS011;2961;47.702;9.410;2023-02-28T01:20:12;7.73;;;6.13;;
5869;SDS011;2961;47.702;9.410;2023-02-28T01:22:40;5.63;;;5.07;;
5869;SDS011;2961;47.702;9.410;2023-02-28T01:25:07;8.30;;;6.57;;
5869;SDS011;2961;47.702;9.410;2023-02-28T01:27:34;7.77;;;5.87;;
5869;SDS011;2961;47.702;9.410;2023-02-28T01:30:01;12.60;;;6.70;;
5869;SDS011;2961;47.702;9.410;2023-02-28T01:32:28;7.30;;;5.40;;
5869;SDS011;2961;47.702;9.410;2023-02-28T01:34:55;12.03;;;7.00;;
5869;SDS011;2961;47.702;9.410;2023-02-28T01:37:22;6.77;;;6.03;;
5869;SDS011;2961;47.702;9.410;2023-02-28T01:39:50;6.70;;;5.60;;
5869;SDS011;2961;47.702;9.410;2023-02-28T01:42:17;5.73;;;5.07;;
5869;SDS011;2961;47.702;9.410;2023-02-28T01:45:04;6.67;;;5.27;;
5869;SDS011;2961;47.702;9.410;2023-02-28T01:47:43;6.50;;;5.90;;
5869;SDS011;2961;47.702;9.410;2023-02-28T01:50:11;10.00;;;6.60;;
5869;SDS011;2961;47.702;9.410;2023-02-28T01:52:41;7.60;;;6.80;;
5869;SDS011;2961;47.702;9.410;2023-02-28T01:55:10;6.80;;;5.80;;
5869;SDS011;2961;47.702;9.410;2023-02-28T01:57:39;5.93;;;5.40;;
5869;SDS011;2961;47.702;9.410;2023-02-28T02:00:09;8.47;;;6.07;;
5869;SDS011;2961;47.702;9.410;2023-02-28T02:02:40;9.10;;;6.30;;
5869;SDS011;2961;47.702;9.410;2023-02-28T02:05:10;6.97;;;5.93;;
5869;SDS011;2961;47.702;9.410;2023-02-28T02:07:38;11.20;;;5.73;;
5869;SDS011;2961;47.702;9.410;2023-02-28T02:10:12;10.00;;;6.60;;
5869;SDS011;2961;47.702;9.410;2023-02-28T02:12:46;4.57;;;4.20;;
5869;SDS011;2961;47.702;9.410;2023-02-28T02:15:29;7.67;;;5.70;;
5869;SDS011;2961;47.702;9.410;2023-02-28T02:18:01;7.53;;;5.60;;
5869;SDS011;2961;47.702;9.410;2023-02-28T02:20:44;6.40;;;5.70;;
5869;SDS011;2961;47.702;9.410;2023-02-28T02:23:51;6.63;;;5.33;;
5869;SDS011;2961;47.702;9.410;2023-02-28T02:29:22;10.10;;;6.77;;
5869;SDS011;2961;47.702;9.410;2023-02-28T02:32:11;7.30;;;5.60;;
5869;SDS011;2961;47.702;9.410;2023-02-28T02:35:00;7.70;;;6.37;;
5869;SDS011;2961;47.702;9.410;2023-02-28T02:37:36;6.20;;;5.00;;
5869;SDS011;2961;47.702;9.410;2023-02-28T02:40:10;11.90;;;6.20;;
5869;SDS011;2961;47.702;9.410;2023-02-28T02:42:44;7.10;;;6.17;;
5869;SDS011;2961;47.702;9.410;2023-02-28T02:45:17;8.17;;;5.50;;
5869;SDS011;2961;47.702;9.410;2023-02-28T02:47:49;8.57;;;5.57;;
5869;SDS011;2961;47.702;9.410;2023-02-28T02:50:19;7.63;;;5.40;;
5869;SDS011;2961;47.702;9.410;2023-02-28T02:52:53;7.93;;;5.80;;
5869;SDS011;2961;47.702;9.410;2023-02-28T02:55:24;6.97;;;5.40;;
5869;SDS011;2961;47.702;9.410;2023-02-28T02:57:52;4.73;;;4.33;;
5869;SDS011;2961;47.702;9.410;2023-02-28T03:00:25;8.27;;;6.00;;
5869;SDS011;2961;47.702;9.410;2023-02-28T03:02:56;8.70;;;4.60;;
5869;SDS011;2961;47.702;9.410;2023-02-28T03:05:25;7.73;;;5.30;;
5869;SDS011;2961;47.702;9.410;2023-02-28T03:07:55;8.67;;;4.93;;
5869;SDS011;2961;47.702;9.410;2023-02-28T03:10:30;10.83;;;6.27;;
5869;SDS011;2961;47.702;9.410;2023-02-28T03:13:06;8.00;;;5.10;;
5869;SDS011;2961;47.702;9.410;2023-02-28T03:15:58;15.93;;;5.57;;
5869;SDS011;2961;47.702;9.410;2023-02-28T03:18:52;8.90;;;5.20;;
5869;SDS011;2961;47.702;9.410;2023-02-28T03:21:28;6.67;;;5.60;;
5869;SDS011;2961;47.702;9.410;2023-02-28T03:24:02;6.63;;;5.00;;
5869;SDS011;2961;47.702;9.410;2023-02-28T03:26:33;5.20;;;4.23;;
5869;SDS011;2961;47.702;9.410;2023-02-28T03:29:03;5.77;;;5.23;;
5869;SDS011;2961;47.702;9.410;2023-02-28T03:31:38;7.83;;;5.23;;
5869;SDS011;2961;47.702;9.410;2023-02-28T03:34:09;7.33;;;5.77;;
5869;SDS011;2961;47.702;9.410;2023-02-28T03:36:43;7.23;;;5.33;;
5869;SDS011;2961;47.702;9.410;2023-02-28T03:39:14;10.07;;;6.80;;
5869;SDS011;2961;47.702;9.410;2023-02-28T03:41:45;6.30;;;5.70;;
5869;SDS011;2961;47.702;9.410;2023-02-28T03:44:16;6.53;;;5.13;;
5869;SDS011;2961;47.702;9.410;2023-02-28T03:46:48;8.00;;;5.37;;
5869;SDS011;2961;47.702;9.410;2023-02-28T03:49:20;9.53;;;5.23;;
5869;SDS011;2961;47.702;9.410;2023-02-28T03:51:52;8.30;;;5.70;;
5869;SDS011;2961;47.702;9.410;2023-02-28T03:54:22;9.77;;;5.80;;
5869;SDS011;2961;47.702;9.410;2023-02-28T03:56:56;9.40;;;6.10;;
5869;SDS011;2961;47.702;9.410;2023-02-28T03:59:27;7.73;;;5.20;;
5869;SDS011;2961;47.702;9.410;2023-02-28T04:01:56;9.30;;;6.27;;
5869;SDS011;2961;47.702;9.410;2023-02-28T04:04:24;6.40;;;5.90;;
5869;SDS011;2961;47.702;9.410;2023-02-28T04:06:52;7.57;;;5.70;;
5869;SDS011;2961;47.702;9.410;2023-02-28T04:09:27;7.47;;;5.70;;
5869;SDS011;2961;47.702;9.410;2023-02-28T04:11:54;7.90;;;5.90;;
5869;SDS011;2961;47.702;9.410;2023-02-28T04:14:21;6.70;;;6.00;;
5869;SDS011;2961;47.702;9.410;2023-02-28T04:16:48;7.87;;;6.63;;
5869;SDS011;2961;47.702;9.410;2023-02-28T04:19:17;7.17;;;5.97;;
5869;SDS011;2961;47.702;9.410;2023-02-28T04:21:45;6.57;;;5.93;;
5869;SDS011;2961;47.702;9.410;2023-02-28T04:24:15;8.90;;;6.57;;
5869;SDS011;2961;47.702;9.410;2023-02-28T04:26:44;7.23;;;6.50;;
5869;SDS011;2961;47.702;9.410;2023-02-28T04:29:13;7.60;;;6.80;;
5869;SDS011;2961;47.702;9.410;2023-02-28T04:31:43;6.20;;;4.97;;
5869;SDS011;2961;47.702;9.410;2023-02-28T04:34:11;6.07;;;5.47;;
5869;SDS011;2961;47.702;9.410;2023-02-28T04:36:37;16.33;;;7.40;;
5869;SDS011;2961;47.702;9.410;2023-02-28T04:39:04;11.70;;;5.73;;
5869;SDS011;2961;47.702;9.410;2023-02-28T04:41:32;6.43;;;5.83;;
5869;SDS011;2961;47.702;9.410;2023-02-28T04:43:59;11.70;;;5.47;;
5869;SDS011;2961;47.702;9.410;2023-02-28T04:46:26;8.83;;;5.90;;
5869;SDS011;2961;47.702;9.410;2023-02-28T04:48:53;9.47;;;6.77;;
5869;SDS011;2961;47.702;9.410;2023-02-28T04:51:20;11.50;;;6.97;;
5869;SDS011;2961;47.702;9.410;2023-02-28T04:53:47;6.90;;;6.20;;
5869;SDS011;2961;47.702;9.410;2023-02-28T04:56:15;6.17;;;5.67;;
5869;SDS011;2961;47.702;9.410;2023-02-28T04:58:44;10.20;;;6.87;;
5869;SDS011;2961;47.702;9.410;2023-02-28T05:01:18;7.80;;;6.50;;
5869;SDS011;2961;47.702;9.410;2023-02-28T05:03:47;7.63;;;6.23;;
5869;SDS011;2961;47.702;9.410;2023-02-28T05:06:14;11.77;;;6.80;;
5869;SDS011;2961;47.702;9.410;2023-02-28T05:08:41;9.10;;;6.13;;
5869;SDS011;2961;47.702;9.410;2023-02-28T05:11:12;10.27;;;5.30;;
5869;SDS011;2961;47.702;9.410;2023-02-28T05:13:40;7.63;;;6.80;;
5869;SDS011;2961;47.702;9.410;2023-02-28T05:16:09;9.47;;;6.77;;
5869;SDS011;2961;47.702;9.410;2023-02-28T05:18:35;10.77;;;7.50;;
5869;SDS011;2961;47.702;9.410;2023-02-28T05:21:02;9.90;;;7.30;;
5869;SDS011;2961;47.702;9.410;2023-02-28T05:23:29;17.37;;;7.67;;
5869;SDS011;2961;47.702;9.410;2023-02-28T05:25:56;7.70;;;6.70;;
5869;SDS011;2961;47.702;9.410;2023-02-28T05:28:23;7.57;;;6.30;;
5869;SDS011;2961;47.702;9.410;2023-02-28T05:30:50;6.30;;;5.70;;
5869;SDS011;2961;47.702;9.410;2023-02-28T05:33:18;11.00;;;7.00;;
5869;SDS011;2961;47.702;9.410;2023-02-28T05:35:44;8.97;;;6.43;;
5869;SDS011;2961;47.702;9.410;2023-02-28T05:38:11;8.87;;;6.80;;
5869;SDS011;2961;47.702;9.410;2023-02-28T05:40:38;8.43;;;7.50;;
5869;SDS011;2961;47.702;9.410;2023-02-28T05:43:05;13.97;;;6.43;;
5869;SDS011;2961;47.702;9.410;2023-02-28T05:45:33;12.47;;;7.90;;
5869;SDS011;2961;47.702;9.410;2023-02-28T05:48:01;8.67;;;6.07;;
5869;SDS011;2961;47.702;9.410;2023-02-28T05:50:29;11.47;;;7.87;;
5869;SDS011;2961;47.702;9.410;2023-02-28T05:52:56;10.33;;;7.00;;
5869;SDS011;2961;47.702;9.410;2023-02-28T05:55:23;12.60;;;7.60;;
5869;SDS011;2961;47.702;9.410;2023-02-28T05:57:49;10.03;;;7.37;;
5869;SDS011;2961;47.702;9.410;2023-02-28T06:00:16;11.17;;;7.80;;
5869;SDS011;2961;47.702;9.410;2023-02-28T06:02:44;11.27;;;6.83;;
5869;SDS011;2961;47.702;9.410;2023-02-28T06:05:12;12.10;;;7.70;;
5869;SDS011;2961;47.702;9.410;2023-02-28T06:07:42;11.00;;;7.47;;
5869;SDS011;2961;47.702;9.410;2023-02-28T06:10:10;12.00;;;7.83;;
5869;SDS011;2961;47.702;9.410;2023-02-28T06:12:37;10.57;;;8.13;;
5869;SDS011;2961;47.702;9.410;2023-02-28T06:15:04;10.83;;;7.90;;
5869;SDS011;2961;47.702;9.410;2023-02-28T06:17:31;10.13;;;7.27;;
5869;SDS011;2961;47.702;9.410;2023-02-28T06:19:58;11.05;;;8.90;;
5869;SDS011;2961;47.702;9.410;2023-02-28T06:22:25;11.40;;;9.40;;
5869;SDS011;2961;47.702;9.410;2023-02-28T06:24:56;13.45;;;9.85;;
5869;SDS011;2961;47.702;9.410;2023-02-28T06:27:23;11.67;;;9.43;;
5869;SDS011;2961;47.702;9.410;2023-02-28T06:29:52;12.43;;;8.00;;
5869;SDS011;2961;47.702;9.410;2023-02-28T06:32:19;12.20;;;9.10;;
5869;SDS011;2961;47.702;9.410;2023-02-28T06:34:46;9.50;;;7.07;;
5869;SDS011;2961;47.702;9.410;2023-02-28T06:37:13;10.10;;;7.27;;
5869;SDS011;2961;47.702;9.410;2023-02-28T06:39:40;11.50;;;7.47;;
5869;SDS011;2961;47.702;9.410;2023-02-28T06:42:09;8.27;;;7.10;;
5869;SDS011;2961;47.702;9.410;2023-02-28T06:44:35;9.30;;;7.17;;
5869;SDS011;2961;47.702;9.410;2023-02-28T06:47:03;14.33;;;9.00;;
5869;SDS011;2961;47.702;9.410;2023-02-28T06:49:30;15.37;;;8.30;;
5869;SDS011;2961;47.702;9.410;2023-02-28T06:51:57;11.67;;;8.67;;
5869;SDS011;2961;47.702;9.410;2023-02-28T06:54:24;12.37;;;9.30;;
5869;SDS011;2961;47.702;9.410;2023-02-28T06:56:52;11.77;;;7.43;;
5869;SDS011;2961;47.702;9.410;2023-02-28T06:59:21;10.37;;;8.63;;
5869;SDS011;2961;47.702;9.410;2023-02-28T07:01:48;12.57;;;8.20;;
5869;SDS011;2961;47.702;9.410;2023-02-28T07:04:14;9.73;;;8.17;;
5869;SDS011;2961;47.702;9.410;2023-02-28T07:06:41;10.03;;;8.13;;
5869;SDS011;2961;47.702;9.410;2023-02-28T07:09:08;12.00;;;7.80;;
5869;SDS011;2961;47.702;9.410;2023-02-28T07:11:35;12.83;;;8.20;;
5869;SDS011;2961;47.702;9.410;2023-02-28T07:14:02;13.67;;;8.20;;
5869;SDS011;2961;47.702;9.410;2023-02-28T07:16:30;12.33;;;7.63;;
5869;SDS011;2961;47.702;9.410;2023-02-28T07:18:57;14.90;;;9.20;;
5869;SDS011;2961;47.702;9.410;2023-02-28T07:21:24;11.37;;;8.63;;
5869;SDS011;2961;47.702;9.410;2023-02-28T07:23:51;10.50;;;8.37;;
5869;SDS011;2961;47.702;9.410;2023-02-28T07:26:18;9.27;;;7.63;;
5869;SDS011;2961;47.702;9.410;2023-02-28T07:28:46;9.53;;;7.80;;
5869;SDS011;2961;47.702;9.410;2023-02-28T07:31:14;9.07;;;7.63;;
5869;SDS011;2961;47.702;9.410;2023-02-28T07:33:43;16.33;;;8.70;;
5869;SDS011;2961;47.702;9.410;2023-02-28T07:36:11;12.53;;;9.13;;
5869;SDS011;2961;47.702;9.410;2023-02-28T07:38:40;8.93;;;6.97;;
5869;SDS011;2961;47.702;9.410;2023-02-28T07:41:07;11.90;;;8.53;;
5869;SDS011;2961;47.702;9.410;2023-02-28T07:43:34;10.30;;;7.63;;
5869;SDS011;2961;47.702;9.410;2023-02-28T07:46:02;10.70;;;7.83;;
5869;SDS011;2961;47.702;9.410;2023-02-28T07:48:29;11.60;;;7.60;;
5869;SDS011;2961;47.702;9.410;2023-02-28T07:50:57;10.53;;;7.20;;
5869;SDS011;2961;47.702;9.410;2023-02-28T07:53:25;9.53;;;7.40;;
5869;SDS011;2961;47.702;9.410;2023-02-28T07:55:54;10.60;;;8.93;;
5869;SDS011;2961;47.702;9.410;2023-02-28T07:58:21;12.27;;;8.30;;
5869;SDS011;2961;47.702;9.410;2023-02-28T08:00:48;10.30;;;7.93;;
5869;SDS011;2961;47.702;9.410;2023-02-28T08:03:15;12.87;;;7.87;;
5869;SDS011;2961;47.702;9.410;2023-02-28T08:05:43;12.30;;;8.27;;
5869;SDS011;2961;47.702;9.410;2023-02-28T08:08:11;9.80;;;7.90;;
5869;SDS011;2961;47.702;9.410;2023-02-28T08:10:38;11.17;;;7.63;;
5869;SDS011;2961;47.702;9.410;2023-02-28T08:13:04;12.60;;;9.13;;
5869;SDS011;2961;47.702;9.410;2023-02-28T08:15:31;16.43;;;8.27;;
5869;SDS011;2961;47.702;9.410;2023-02-28T08:17:58;10.27;;;8.77;;
5869;SDS011;2961;47.702;9.410;2023-02-28T08:20:25;10.67;;;8.30;;
5869;SDS011;2961;47.702;9.410;2023-02-28T08:22:52;10.80;;;8.77;;
5869;SDS011;2961;47.702;9.410;2023-02-28T08:25:20;9.07;;;8.13;;
5869;SDS011;2961;47.702;9.410;2023-02-28T08:27:47;16.03;;;7.57;;
5869;SDS011;2961;47.702;9.410;2023-02-28T08:30:17;10.07;;;7.80;;
5869;SDS011;2961;47.702;9.410;2023-02-28T08:32:44;12.13;;;8.13;;
5869;SDS011;2961;47.702;9.410;2023-02-28T08:35:10;12.63;;;8.93;;
5869;SDS011;2961;47.702;9.410;2023-02-28T08:37:37;10.50;;;8.30;;
5869;SDS011;2961;47.702;9.410;2023-02-28T08:40:04;10.43;;;7.67;;
5869;SDS011;2961;47.702;9.410;2023-02-28T08:42:34;10.13;;;8.37;;
5869;SDS011;2961;47.702;9.410;2023-02-28T08:45:00;8.87;;;6.50;;
5869;SDS011;2961;47.702;9.410;2023-02-28T08:47:27;9.33;;;7.73;;
5869;SDS011;2961;47.702;9.410;2023-02-28T08:49:54;19.07;;;8.93;;
5869;SDS011;2961;47.702;9.410;2023-02-28T08:52:21;11.60;;;8.23;;
5869;SDS011;2961;47.702;9.410;2023-02-28T08:54:47;15.17;;;9.37;;
5869;SDS011;2961;47.702;9.410;2023-02-28T08:57:14;10.50;;;8.00;;
5869;SDS011;2961;47.702;9.410;2023-02-28T08:59:42;11.40;;;8.17;;
5869;SDS011;2961;47.702;9.410;2023-02-28T09:02:09;12.63;;;8.77;;
5869;SDS011;2961;47.702;9.410;2023-02-28T09:04:39;12.07;;;8.77;;
5869;SDS011;2961;47.702;9.410;2023-02-28T09:07:06;12.20;;;8.33;;
5869;SDS011;2961;47.702;9.410;2023-02-28T09:09:33;11.40;;;8.50;;
5869;SDS011;2961;47.702;9.410;2023-02-28T09:12:00;12.10;;;9.40;;
5869;SDS011;2961;47.702;9.410;2023-02-28T09:14:27;15.13;;;9.03;;
5869;SDS011;2961;47.702;9.410;2023-02-28T09:16:55;11.97;;;8.23;;
5869;SDS011;2961;47.702;9.410;2023-02-28T09:19:22;11.70;;;9.00;;
5869;SDS011;2961;47.702;9.410;2023-02-28T09:21:48;11.27;;;8.50;;
5869;SDS011;2961;47.702;9.410;2023-02-28T09:24:15;12.23;;;8.00;;
5869;SDS011;2961;47.702;9.410;2023-02-28T09:26:43;19.97;;;9.57;;
5869;SDS011;2961;47.702;9.410;2023-02-28T09:29:09;12.13;;;7.97;;
5869;SDS011;2961;47.702;9.410;2023-02-28T09:31:37;10.70;;;8.83;;
5869;SDS011;2961;47.702;9.410;2023-02-28T09:34:05;16.00;;;8.93;;
5869;SDS011;2961;47.702;9.410;2023-02-28T09:36:32;14.67;;;8.07;;
5869;SDS011;2961;47.702;9.410;2023-02-28T09:39:00;12.00;;;9.10;;
5869;SDS011;2961;47.702;9.410;2023-02-28T09:41:26;16.73;;;9.47;;
5869;SDS011;2961;47.702;9.410;2023-02-28T09:44:01;12.70;;;8.17;;
5869;SDS011;2961;47.702;9.410;2023-02-28T09:46:32;9.87;;;8.03;;
5869;SDS011;2961;47.702;9.410;2023-02-28T09:49:04;10.47;;;8.53;;
5869;SDS011;2961;47.702;9.410;2023-02-28T09:51:36;11.33;;;9.07;;
5869;SDS011;2961;47.702;9.410;2023-02-28T09:54:10;11.10;;;9.00;;
5869;SDS011;2961;47.702;9.410;2023-02-28T09:56:43;12.40;;;9.37;;
5869;SDS011;2961;47.702;9.410;2023-02-28T09:59:14;13.80;;;9.93;;
5869;SDS011;2961;47.702;9.410;2023-02-28T10:01:53;11.67;;;8.30;;
5869;SDS011;2961;47.702;9.410;2023-02-28T10:04:34;15.30;;;10.13;;
5869;SDS011;2961;47.702;9.410;2023-02-28T10:07:11;13.90;;;8.90;;
5869;SDS011;2961;47.702;9.410;2023-02-28T10:09:49;13.17;;;9.43;;
5869;SDS011;2961;47.702;9.410;2023-02-28T10:12:19;10.97;;;8.40;;
5869;SDS011;2961;47.702;9.410;2023-02-28T10:14:47;12.00;;;9.20;;
5869;SDS011;2961;47.702;9.410;2023-02-28T10:17:18;13.87;;;9.07;;
5869;SDS011;2961;47.702;9.410;2023-02-28T10:19:53;13.10;;;8.83;;
5869;SDS011;2961;47.702;9.410;2023-02-28T10:22:26;11.77;;;8.67;;
5869;SDS011;2961;47.702;9.410;2023-02-28T10:24:59;14.13;;;8.97;;
5869;SDS011;2961;47.702;9.410;2023-02-28T10:27:29;11.37;;;8.20;;
5869;SDS011;2961;47.702;9.410;2023-02-28T10:29:57;16.07;;;10.97;;
5869;SDS011;2961;47.702;9.410;2023-02-28T10:32:27;13.27;;;9.07;;
5869;SDS011;2961;47.702;9.410;2023-02-28T10:34:58;13.80;;;9.60;;
5869;SDS011;2961;47.702;9.410;2023-02-28T10:37:27;12.93;;;9.27;;
5869;SDS011;2961;47.702;9.410;2023-02-28T10:39:54;12.93;;;8.70;;
5869;SDS011;2961;47.702;9.410;2023-02-28T10:42:22;14.37;;;8.73;;
5869;SDS011;2961;47.702;9.410;2023-02-28T10:45:10;14.77;;;9.40;;
5869;SDS011;2961;47.702;9.410;2023-02-28T10:47:41;15.10;;;8.93;;
5869;SDS011;2961;47.702;9.410;2023-02-28T10:50:28;13.97;;;9.57;;
5869;SDS011;2961;47.702;9.410;2023-02-28T10:53:05;15.10;;;9.30;;
5869;SDS011;2961;47.702;9.410;2023-02-28T10:55:40;12.33;;;8.23;;
5869;SDS011;2961;47.702;9.410;2023-02-28T10:58:18;12.73;;;8.60;;
5869;SDS011;2961;47.702;9.410;2023-02-28T11:00:48;20.37;;;9.40;;
5869;SDS011;2961;47.702;9.410;2023-02-28T11:03:23;14.07;;;9.30;;
5869;SDS011;2961;47.702;9.410;2023-02-28T11:05:53;11.20;;;8.77;;
5869;SDS011;2961;47.702;9.410;2023-02-28T11:08:20;14.60;;;9.90;;
5869;SDS011;2961;47.702;9.410;2023-02-28T11:10:47;14.20;;;9.67;;
5869;SDS011;2961;47.702;9.410;2023-02-28T11:13:20;14.27;;;10.00;;
5869;SDS011;2961;47.702;9.410;2023-02-28T11:15:51;14.27;;;9.50;;
5869;SDS011;2961;47.702;9.410;2023-02-28T11:18:24;14.67;;;10.33;;
5869;SDS011;2961;47.702;9.410;2023-02-28T11:20:57;22.17;;;9.50;;
5869;SDS011;2961;47.702;9.410;2023-02-28T11:23:26;14.97;;;9.83;;
5869;SDS011;2961;47.702;9.410;2023-02-28T11:25:58;14.67;;;9.63;;
5869;SDS011;2961;47.702;9.410;2023-02-28T11:28:27;16.60;;;10.37;;
5869;SDS011;2961;47.702;9.410;2023-02-28T11:31:03;13.00;;;9.30;;
5869;SDS011;2961;47.702;9.410;2023-02-28T11:33:37;14.90;;;10.40;;
5869;SDS011;2961;47.702;9.410;2023-02-28T11:36:10;16.80;;;10.20;;
5869;SDS011;2961;47.702;9.410;2023-02-28T11:38:40;14.40;;;11.23;;
5869;SDS011;2961;47.702;9.410;2023-02-28T11:44:02;22.23;;;11.70;;
5869;SDS011;2961;47.702;9.410;2023-02-28T11:46:47;12.83;;;10.20;;
5869;SDS011;2961;47.702;9.410;2023-02-28T11:49:22;16.30;;;11.60;;
5869;SDS011;2961;47.702;9.410;2023-02-28T11:51:58;15.93;;;10.90;;
5869;SDS011;2961;47.702;9.410;2023-02-28T11:57:21;15.63;;;10.93;;
5869;SDS011;2961;47.702;9.410;2023-02-28T12:00:00;15.70;;;10.00;;
5869;SDS011;2961;47.702;9.410;2023-02-28T12:02:34;13.80;;;10.17;;
5869;SDS011;2961;47.702;9.410;2023-02-28T12:05:09;13.97;;;9.97;;
5869;SDS011;2961;47.702;9.410;2023-02-28T12:07:47;16.33;;;11.07;;
5869;SDS011;2961;47.702;9.410;2023-02-28T12:10:22;20.20;;;11.30;;
5869;SDS011;2961;47.702;9.410;2023-02-28T12:12:55;16.23;;;12.67;;
5869;SDS011;2961;47.702;9.410;2023-02-28T12:18:36;16.37;;;10.17;;
5869;SDS011;2961;47.702;9.410;2023-02-28T12:21:14;20.03;;;12.37;;
5869;SDS011;2961;47.702;9.410;2023-02-28T12:23:52;19.77;;;12.90;;
5869;SDS011;2961;47.702;9.410;2023-02-28T12:26:31;14.47;;;11.70;;
5869;SDS011;2961;47.702;9.410;2023-02-28T12:29:04;17.00;;;11.00;;
5869;SDS011;2961;47.702;9.410;2023-02-28T12:31:40;21.47;;;14.40;;
5869;SDS011;2961;47.702;9.410;2023-02-28T12:34:12;18.23;;;12.77;;
5869;SDS011;2961;47.702;9.410;2023-02-28T12:36:42;17.98;;;14.52;;
5869;SDS011;2961;47.702;9.410;2023-02-28T12:39:14;22.10;;;12.20;;
5869;SDS011;2961;47.702;9.410;2023-02-28T12:41:45;19.67;;;12.00;;
5869;SDS011;2961;47.702;9.410;2023-02-28T12:44:17;16.93;;;10.40;;
5869;SDS011;2961;47.702;9.410;2023-02-28T12:46:49;16.43;;;12.07;;
5869;SDS011;2961;47.702;9.410;2023-02-28T12:49:18;16.60;;;12.63;;
5869;SDS011;2961;47.702;9.410;2023-02-28T12:51:49;17.77;;;12.00;;
5869;SDS011;2961;47.702;9.410;2023-02-28T12:54:22;15.97;;;11.50;;
5869;SDS011;2961;47.702;9.410;2023-02-28T12:56:53;16.87;;;12.10;;
5869;SDS011;2961;47.702;9.410;2023-02-28T12:59:25;18.77;;;12.20;;
5869;SDS011;2961;47.702;9.410;2023-02-28T13:01:57;17.83;;;11.80;;
5869;SDS011;2961;47.702;9.410;2023-02-28T13:04:38;21.20;;;13.30;;
5869;SDS011;2961;47.702;9.410;2023-02-28T13:07:23;15.50;;;10.90;;
5869;SDS011;2961;47.702;9.410;2023-02-28T13:10:03;12.97;;;9.87;;
5869;SDS011;2961;47.702;9.410;2023-02-28T13:12:32;18.27;;;12.03;;
5869;SDS011;2961;47.702;9.410;2023-02-28T13:15:02;17.03;;;12.80;;
5869;SDS011;2961;47.702;9.410;2023-02-28T13:17:36;18.90;;;13.07;;
5869;SDS011;2961;47.702;9.410;2023-02-28T13:20:13;20.30;;;14.40;;
5869;SDS011;2961;47.702;9.410;2023-02-28T13:22:43;18.77;;;12.90;;
5869;SDS011;2961;47.702;9.410;2023-02-28T13:31:33;18.30;;;11.83;;
5869;SDS011;2961;47.702;9.410;2023-02-28T13:34:26;22.40;;;13.00;;
5869;SDS011;2961;47.702;9.410;2023-02-28T13:36:57;17.27;;;11.73;;
5869;SDS011;2961;47.702;9.410;2023-02-28T13:40:06;17.53;;;12.73;;
5869;SDS011;2961;47.702;9.410;2023-02-28T13:42:48;15.60;;;10.60;;
5869;SDS011;2961;47.702;9.410;2023-02-28T13:45:23;21.03;;;13.57;;
5869;SDS011;2961;47.702;9.410;2023-02-28T13:47:53;19.07;;;13.10;;
5869;SDS011;2961;47.702;9.410;2023-02-28T13:50:26;19.83;;;13.50;;
5869;SDS011;2961;47.702;9.410;2023-02-28T13:53:07;20.57;;;13.07;;
5869;SDS011;2961;47.702;9.410;2023-02-28T13:55:59;24.83;;;14.67;;
5869;SDS011;2961;47.702;9.410;2023-02-28T13:58:40;18.40;;;12.33;;
5869;SDS011;2961;47.702;9.410;2023-02-28T14:01:15;19.97;;;13.20;;
5869;SDS011;2961;47.702;9.410;2023-02-28T14:03:56;18.80;;;12.40;;
5869;SDS011;2961;47.702;9.410;2023-02-28T14:06:32;25.90;;;14.63;;
5869;SDS011;2961;47.702;9.410;2023-02-28T14:09:02;18.97;;;13.70;;
5869;SDS011;2961;47.702;9.410;2023-02-28T14:11:42;18.90;;;13.30;;
5869;SDS011;2961;47.702;9.410;2023-02-28T14:14:52;22.90;;;15.17;;
5869;SDS011;2961;47.702;9.410;2023-02-28T14:17:16;20.17;;;14.00;;
5869;SDS011;2961;47.702;9.410;2023-02-28T14:19:44;22.10;;;14.07;;
5869;SDS011;2961;47.702;9.410;2023-02-28T14:22:16;21.30;;;14.40;;
5869;SDS011;2961;47.702;9.410;2023-02-28T14:25:10;22.60;;;14.73;;
5869;SDS011;2961;47.702;9.410;2023-02-28T14:27:47;20.27;;;14.23;;
5869;SDS011;2961;47.702;9.410;2023-02-28T14:30:26;20.23;;;12.90;;
5869;SDS011;2961;47.702;9.410;2023-02-28T14:33:22;29.43;;;15.90;;
5869;SDS011;2961;47.702;9.410;2023-02-28T14:36:00;30.25;;;15.10;;
5869;SDS011;2961;47.702;9.410;2023-02-28T14:38:34;21.87;;;16.40;;
5869;SDS011;2961;47.702;9.410;2023-02-28T14:41:11;22.80;;;14.70;;
5869;SDS011;2961;47.702;9.410;2023-02-28T14:43:48;24.27;;;14.90;;
5869;SDS011;2961;47.702;9.410;2023-02-28T14:46:17;27.20;;;15.77;;
5869;SDS011;2961;47.702;9.410;2023-02-28T14:48:46;26.50;;;14.73;;
5869;SDS011;2961;47.702;9.410;2023-02-28T14:51:17;23.70;;;14.73;;
5869;SDS011;2961;47.702;9.410;2023-02-28T14:53:47;25.10;;;16.20;;
5869;SDS011;2961;47.702;9.410;2023-02-28T14:56:21;24.10;;;16.23;;
5869;SDS011;2961;47.702;9.410;2023-02-28T14:58:53;28.77;;;15.50;;
5869;SDS011;2961;47.702;9.410;2023-02-28T15:01:22;25.27;;;16.20;;
5869;SDS011;2961;47.702;9.410;2023-02-28T15:03:59;22.97;;;14.87;;
5869;SDS011;2961;47.702;9.410;2023-02-28T15:06:27;22.90;;;13.47;;
5869;SDS011;2961;47.702;9.410;2023-02-28T15:09:08;25.33;;;15.20;;
5869;SDS011;2961;47.702;9.410;2023-02-28T15:11:37;22.73;;;15.43;;
5869;SDS011;2961;47.702;9.410;2023-02-28T15:14:06;26.63;;;16.23;;
5869;SDS011;2961;47.702;9.410;2023-02-28T15:16:34;23.37;;;14.20;;
5869;SDS011;2961;47.702;9.410;2023-02-28T15:19:05;21.50;;;14.33;;
5869;SDS011;2961;47.702;9.410;2023-02-28T15:21:38;25.80;;;15.93;;
5869;SDS011;2961;47.702;9.410;2023-02-28T15:24:10;25.70;;;16.77;;
5869;SDS011;2961;47.702;9.410;2023-02-28T15:26:43;27.50;;;17.47;;
5869;SDS011;2961;47.702;9.410;2023-02-28T15:29:13;24.73;;;16.10;;
5869;SDS011;2961;47.702;9.410;2023-02-28T15:31:43;27.00;;;15.93;;
5869;SDS011;2961;47.702;9.410;2023-02-28T15:34:18;25.03;;;15.47;;
5869;SDS011;2961;47.702;9.410;2023-02-28T15:36:47;22.10;;;14.80;;
5869;SDS011;2961;47.702;9.410;2023-02-28T15:39:18;26.33;;;15.47;;
5869;SDS011;2961;47.702;9.410;2023-02-28T15:41:46;23.00;;;15.07;;
5869;SDS011;2961;47.702;9.410;2023-02-28T15:44:14;25.13;;;15.70;;